1979 10S:CELINE (1979031S12056)


On this page: IBTrACS data - Map and Plots - Positions - Intensities - Original source data

Summary

Start Jan 31
End Feb 12
Basin SI
LMI 125 kt
Sources jtwc_sh
reunion
td9636
neumann
ds824_sh
In WMO? Yes
Previous storm 1979 09P (SP)
Previous in basin 1979 07S (SI)
Concurrent storms 1979 09P (SP)
1979 10S (SI)
1979 11P (SP)
1979 12S (SI)
1979 14S (SI)
1979 13P (SP)
1979 16P (SP)
Next in basin 1979 12S (SI)
Next storm 1979 11P (SP)

top of page IBTrACS Data: File Access

top of page HURSAT Data: File Access

Image of storm

top of page Plots:

Map of storm track will not appear if FTP is down
Time series of cyclone Maximum Sustained Wind will not appear if FTP is down
Time series of cyclone Minimum Central Pressure will not appear if FTP is down

top of page Track Data:Position

jtwc_sh reunion td9636 neumann ds824_sh
Date Lat Lon Lat Lon Lat Lon Lat Lon Lat Lon
1979-01-31 06:00:00 -12.0 55.8 -12.0 55.8 -12.0 55.8
1979-01-31 12:00:00 -12.2 55.3 -12.2 55.3 -12.2 55.3
1979-01-31 18:00:00 -12.3 54.9 -12.3 54.9 -12.3 54.9
1979-02-01 00:00:00 -12.3 54.6 -12.2 54.7 -12.3 54.6
1979-02-01 06:00:00 -12.5 54.9 -12.5 54.9 -12.5 54.9
1979-02-01 12:00:00 -13.6 55.8 -13.5 57.5 -13.5 55.8 -13.5 57.5 -13.6 55.8
1979-02-01 18:00:00 -14.9 57.0 -14.9 57.8 -14.9 57.0 -14.9 57.8 -14.9 57.0
1979-02-02 00:00:00 -16.1 58.3 -16.0 58.0 -16.1 58.4 -16.0 58.0 -16.1 58.3
1979-02-02 06:00:00 -17.2 59.5 -17.0 58.5 -17.2 59.5 -17.0 58.5 -17.2 59.5
1979-02-02 12:00:00 -18.0 59.9 -18.0 59.0 -17.9 59.9 -18.0 59.0 -18.0 59.9
1979-02-02 18:00:00 -18.5 59.9 -18.7 59.3 -18.5 59.9 -18.7 59.3 -18.5 59.9
1979-02-03 00:00:00 -19.1 59.9 -19.4 59.6 -19.1 59.9 -19.4 59.6 -19.1 59.9
1979-02-03 06:00:00 -19.5 59.6 -20.2 59.7 -19.5 59.6 -20.2 59.7 -19.5 59.6
1979-02-03 12:00:00 -19.7 59.0 -21.0 59.5 -19.8 59.0 -21.0 59.5 -19.7 59.0
1979-02-03 18:00:00 -19.9 58.3 -21.5 59.2 -19.9 58.3 -21.5 59.2 -19.9 58.3
1979-02-04 00:00:00 -20.1 57.5 -21.8 58.8 -20.1 57.6 -21.8 58.8 -20.1 57.5
1979-02-04 06:00:00 -20.2 57.1 -21.9 58.1 -20.2 57.1 -21.9 58.1 -20.2 57.1
1979-02-04 12:00:00 -20.3 57.1 -21.6 57.8 -20.2 57.0 -21.6 57.8 -20.3 57.1
1979-02-04 18:00:00 -20.3 57.1 -21.3 57.9 -20.3 57.1 -21.3 57.9 -20.3 57.1
1979-02-05 00:00:00 -20.5 57.1 -21.1 58.1 -20.5 57.1 -21.1 58.1 -20.5 57.1
1979-02-05 06:00:00 -20.6 57.1 -21.1 58.4 -20.6 57.1 -21.1 58.4 -20.6 57.1
1979-02-05 12:00:00 -20.6 57.2 -21.1 58.8 -20.6 57.3 -21.1 58.8 -20.6 57.2
1979-02-05 18:00:00 -20.6 57.5 -21.0 59.0 -20.6 57.5 -21.0 59.0 -20.6 57.5
1979-02-06 00:00:00 -20.6 57.8 -20.9 59.0 -20.6 57.8 -20.9 59.0 -20.6 57.8
1979-02-06 06:00:00 -20.6 58.1 -20.5 59.0 -20.6 58.1 -20.5 59.0 -20.6 58.1
jtwc_sh reunion td9636 neumann ds824_sh
1979-02-06 12:00:00 -20.6 58.5 -20.4 59.0 -20.6 58.5 -20.4 59.0 -20.6 58.5
1979-02-06 18:00:00 -20.5 59.0 -20.3 59.1 -20.5 59.0 -20.3 59.1 -20.5 59.0
1979-02-07 00:00:00 -20.5 59.4 -20.2 59.2 -20.5 59.4 -20.2 59.2 -20.5 59.4
1979-02-07 06:00:00 -20.4 59.8 -20.1 59.3 -20.4 59.8 -20.1 59.3 -20.4 59.8
1979-02-07 12:00:00 -20.3 60.0 -20.0 59.4 -20.3 60.0 -20.0 59.4 -20.3 60.0
1979-02-07 18:00:00 -20.2 60.3 -19.8 59.9 -20.2 60.3 -19.8 59.9 -20.2 60.3
1979-02-08 00:00:00 -20.1 60.7 -19.8 60.3 -20.1 60.7 -19.8 60.3 -20.1 60.7
1979-02-08 06:00:00 -20.1 61.1 -19.8 61.0 -20.1 61.1 -19.8 61.0 -20.1 61.1
1979-02-08 12:00:00 -20.1 61.5 -19.8 61.6 -20.1 61.5 -19.8 61.6 -20.1 61.5
1979-02-08 18:00:00 -20.1 62.0 -19.9 62.2 -20.1 62.0 -19.9 62.2 -20.1 62.0
1979-02-09 00:00:00 -20.1 62.5 -20.0 63.0 -20.0 62.3 -20.0 63.0 -20.1 62.5
1979-02-09 06:00:00 -20.1 63.1 -20.2 63.7 -20.1 63.1 -20.2 63.7 -20.1 63.1
1979-02-09 12:00:00 -20.5 65.1 -20.6 64.4 -20.6 65.2 -20.6 64.4 -20.5 65.1
1979-02-09 18:00:00 -21.5 67.5 -21.2 65.2 -21.5 67.5 -21.2 65.2 -21.5 67.5
1979-02-10 00:00:00 -22.6 68.7 -22.5 66.7 -22.6 68.8 -22.5 66.7 -22.6 68.7
1979-02-10 06:00:00 -23.8 69.9 -23.7 68.7 -23.8 69.9 -23.7 68.7 -23.8 69.9
1979-02-10 12:00:00 -24.9 71.4 -24.5 70.0 -24.8 71.4 -24.5 70.0 -24.9 71.4
1979-02-10 18:00:00 -26.0 72.8 -25.1 71.5 -26.0 72.8 -25.1 71.5 -26.0 72.8
1979-02-11 00:00:00 -27.7 73.7 -26.2 73.0 -27.7 73.7 -26.2 73.0 -27.7 73.7
1979-02-11 06:00:00 -29.5 73.9 -28.0 74.0 -29.5 73.9 -28.0 74.0 -29.5 73.9
1979-02-11 12:00:00 -30.7 73.2 -30.7 74.0 -30.8 73.3 -30.7 74.0 -30.7 73.2
1979-02-11 18:00:00 -32.0 72.5 -31.0 71.0 -32.0 72.5 -31.0 71.0 -32.0 72.5
1979-02-12 00:00:00 -33.4 72.2 -33.2 70.0 -33.4 72.1 -33.2 70.0 -33.4 72.2
1979-02-12 06:00:00 -34.9 72.0 -35.1 72.2 -34.9 72.0 -35.1 72.2 -34.9 72.0
jtwc_sh reunion td9636 neumann ds824_sh
1979-02-12 12:00:00 -36.0 75.6 -36.0 75.6

top of pageTrack Data:Intensity

jtwc_sh reunion td9636 neumann ds824_sh
Date Wind Pres Wind Pres Wind Pres Wind Pres Wind Pres
1979-01-31 06:00:00 25.
1979-01-31 12:00:00 25.
1979-01-31 18:00:00 25.
1979-02-01 00:00:00 25.
1979-02-01 06:00:00 25.
1979-02-01 12:00:00 20. 25. 25.
1979-02-01 18:00:00 25. 25.
1979-02-02 00:00:00 25. 25.
1979-02-02 06:00:00 25. 25.
1979-02-02 12:00:00 20. 1003. 25. 1003. 25.
1979-02-02 18:00:00 35. 25.
1979-02-03 00:00:00 35. 25.
1979-02-03 06:00:00 40. 25.
1979-02-03 12:00:00 24. 1000. 30. 1000. 25.
1979-02-03 18:00:00 40. 25.
1979-02-04 00:00:00 40. 25.
1979-02-04 06:00:00 45. 35.
1979-02-04 12:00:00 28. 997. 35. 997. 35.
1979-02-04 18:00:00 50. 35.
1979-02-05 00:00:00 55. 35.
1979-02-05 06:00:00 60. 35.
1979-02-05 12:00:00 44. 984. 55. 984. 35.
1979-02-05 18:00:00 70. 35.
1979-02-06 00:00:00 75. 35.
1979-02-06 06:00:00 80. 35.
jtwc_sh reunion td9636 neumann ds824_sh
1979-02-06 12:00:00 62. 966. 80. 966. 35.
1979-02-06 18:00:00 85. 35.
1979-02-07 00:00:00 90. 35.
1979-02-07 06:00:00 90. 35.
1979-02-07 12:00:00 72. 954. 95. 954. 35.
1979-02-07 18:00:00 95. 35.
1979-02-08 00:00:00 95. 35.
1979-02-08 06:00:00 100. 65.
1979-02-08 12:00:00 82. 941. 110. 941. 65.
1979-02-08 18:00:00 105. 65.
1979-02-09 00:00:00 105. 65.
1979-02-09 06:00:00 110. 65.
1979-02-09 12:00:00 92. 927. 125. 927. 65.
1979-02-09 18:00:00 115. 65.
1979-02-10 00:00:00 110. 35.
1979-02-10 06:00:00 105. 35.
1979-02-10 12:00:00 82. 941. 110. 941. 35.
1979-02-10 18:00:00 95. 35.
1979-02-11 00:00:00 90. 35.
1979-02-11 06:00:00 85. 35.
1979-02-11 12:00:00 62. 966. 80. 966. 35.
1979-02-11 18:00:00 85. 35.
1979-02-12 00:00:00 85. 25.
1979-02-12 06:00:00 85. 25.
jtwc_sh reunion td9636 neumann ds824_sh
1979-02-12 12:00:00 62. 966. 80. 966.

top of page Links to source data

Source Source file Format
jtwc_sh bsh101979.txt ATCF
reunion WMO-Best-Tracks.txt:Line=11212:celine WMO (old format)
td9636 cons_worldwide_trop_cyclone_18710101-19891231-005:Line=11576 TD 9636
neumann tracks.sh:Storm=545:CELINE:BSH1079:Reunion HURDAT
ds824_sh s_hem.dat:1388:10S HURDAT